Time;durP1;ratioP1;P1;durP2;ratioP2;P2;SDS_P1;SDS_P2;PMS_P1;PMS_P2;Temp;Humidity;BMP_temperature;BMP_pressure;BME280_temperature;BME280_humidity;BME280_pressure;Samples;Min_cycle;Max_cycle;Signal;HPM_P1;HPM_P2
2023/07/11 00:01:44;;;;;;;10.32;7.70;;;;;;;31.35;54.64;99458.50;5055672;28;20120;-83
2023/07/11 00:04:09;;;;;;;12.23;7.15;;;;;;;31.32;54.72;99454.28;5055670;28;20060;-82
2023/07/11 00:06:34;;;;;;;10.35;6.78;;;;;;;31.31;54.15;99458.00;5055508;28;20037;-82
2023/07/11 00:09:00;;;;;;;11.02;7.03;;;;;;;31.29;53.60;99451.94;5055554;28;20017;-82
2023/07/11 00:11:25;;;;;;;10.45;6.43;;;;;;;31.25;52.83;99452.38;5054902;28;20429;-82
2023/07/11 00:13:51;;;;;;;13.32;7.38;;;;;;;31.24;52.86;99440.75;5054853;28;20047;-82
2023/07/11 00:16:18;;;;;;;16.08;6.97;;;;;;;31.21;52.15;99438.38;5055092;28;20095;-82
2023/07/11 00:18:44;;;;;;;15.15;7.20;;;;;;;31.18;51.86;99436.03;5053833;28;20028;-82
2023/07/11 00:21:10;;;;;;;22.15;7.40;;;;;;;31.14;51.73;99432.78;5055153;28;20427;-82
2023/07/11 00:23:35;;;;;;;14.93;7.05;;;;;;;31.11;51.35;99424.19;5055166;28;20025;-82
2023/07/11 00:26:01;;;;;;;13.88;6.15;;;;;;;31.06;51.36;99424.66;5054840;28;20028;-83
2023/07/11 00:28:27;;;;;;;18.55;7.93;;;;;;;31.05;51.37;99431.06;5055094;28;20366;-83
2023/07/11 00:30:52;;;;;;;15.40;7.38;;;;;;;31.03;51.18;99423.13;5054992;28;20021;-81
2023/07/11 00:33:18;;;;;;;16.33;6.43;;;;;;;31.02;51.67;99421.47;5053708;28;20021;-82
2023/07/11 00:35:45;;;;;;;17.88;7.18;;;;;;;31.00;51.73;99414.53;5053408;28;20017;-81
2023/07/11 00:38:12;;;;;;;19.73;6.65;;;;;;;30.98;51.73;99422.78;5054944;28;20151;-81
2023/07/11 00:40:46;;;;;;;18.33;7.22;;;;;;;30.97;51.84;99415.69;5054548;28;20041;-82
2023/07/11 00:43:13;;;;;;;16.73;7.40;;;;;;;30.95;51.70;99418.56;5054797;28;20044;-82
2023/07/11 00:46:16;;;;;;;15.82;6.70;;;;;;;30.93;51.64;99417.88;5054713;28;20366;-81
2023/07/11 00:48:48;;;;;;;16.00;6.85;;;;;;;30.92;51.29;99421.59;5053576;28;20048;-82
2023/07/11 00:51:18;;;;;;;14.95;6.95;;;;;;;30.90;51.46;99411.97;5054856;28;20025;-82
2023/07/11 00:53:43;;;;;;;16.25;7.43;;;;;;;30.88;51.50;99414.00;5054532;28;20052;-83
2023/07/11 00:56:13;;;;;;;17.95;7.30;;;;;;;30.86;51.21;99402.50;5052820;28;20082;-82
2023/07/11 00:58:41;;;;;;;15.15;6.60;;;;;;;30.84;50.98;99405.34;5054474;28;20116;-82
2023/07/11 01:01:08;;;;;;;14.73;6.22;;;;;;;30.81;51.23;99401.13;5054617;28;20057;-82
2023/07/11 01:03:34;;;;;;;15.52;6.78;;;;;;;30.81;50.84;99403.00;5054276;28;20021;-81
2023/07/11 01:05:59;;;;;;;16.45;6.47;;;;;;;30.77;50.57;99396.25;5053190;28;20512;-81
2023/07/11 01:08:25;;;;;;;17.40;6.25;;;;;;;30.76;50.49;99390.03;5053688;28;20058;-82
2023/07/11 01:10:51;;;;;;;20.08;6.45;;;;;;;30.74;50.11;99397.41;5053689;28;20036;-82
2023/07/11 01:13:16;;;;;;;20.92;7.00;;;;;;;30.72;50.23;99387.78;5054273;28;20029;-82
2023/07/11 01:15:42;;;;;;;16.67;6.43;;;;;;;30.71;49.98;99397.75;5054098;28;20066;-83
2023/07/11 01:18:07;;;;;;;17.10;6.35;;;;;;;30.70;49.48;99385.28;5052911;28;20021;-82
2023/07/11 01:20:33;;;;;;;16.98;6.25;;;;;;;30.68;49.71;99382.75;5053835;28;20484;-83
2023/07/11 01:22:58;;;;;;;20.30;7.03;;;;;;;30.68;49.54;99376.47;5053959;28;20059;-81
2023/07/11 01:25:24;;;;;;;16.10;6.15;;;;;;;30.65;49.81;99377.63;5052148;28;20036;-82
2023/07/11 01:27:50;;;;;;;18.00;6.50;;;;;;;30.66;50.09;99376.63;5054012;28;20197;-82
2023/07/11 01:30:22;;;;;;;21.25;6.30;;;;;;;30.64;50.04;99369.69;5053867;28;20035;-81
2023/07/11 01:32:48;;;;;;;16.10;6.65;;;;;;;30.67;50.44;99369.41;5054010;28;20156;-81
2023/07/11 01:35:15;;;;;;;13.02;6.35;;;;;;;30.63;50.93;99358.09;5053958;28;20021;-82
2023/07/11 01:37:41;;;;;;;14.18;6.63;;;;;;;30.63;51.02;99366.19;5053855;28;20021;-81
2023/07/11 01:40:07;;;;;;;14.80;6.70;;;;;;;30.64;51.35;99364.31;5053165;28;20496;-82
2023/07/11 01:42:34;;;;;;;15.90;7.60;;;;;;;30.64;51.35;99364.31;5053614;28;20162;-82
2023/07/11 01:45:00;;;;;;;18.98;7.13;;;;;;;30.63;51.57;99357.25;5053550;28;20106;-82
2023/07/11 01:47:25;;;;;;;17.20;7.38;;;;;;;30.63;51.71;99358.09;5053080;28;20120;-82
2023/07/11 01:49:51;;;;;;;18.58;7.63;;;;;;;30.63;51.67;99351.84;5052085;28;20044;-83
2023/07/11 01:52:19;;;;;;;14.57;6.65;;;;;;;30.62;51.58;99355.56;5053455;28;20090;-82
2023/07/11 01:54:45;;;;;;;19.73;7.22;;;;;;;30.62;51.53;99350.19;5053419;28;20393;-82
2023/07/11 01:57:11;;;;;;;18.25;7.15;;;;;;;30.61;51.43;99348.50;5053257;28;20028;-81
2023/07/11 01:59:37;;;;;;;15.43;7.35;;;;;;;30.58;51.28;99344.28;5052568;28;20503;-81
2023/07/11 02:02:03;;;;;;;17.83;6.88;;;;;;;30.56;50.93;99346.28;5053485;28;20033;-82
2023/07/11 02:04:29;;;;;;;17.52;6.53;;;;;;;30.54;50.87;99343.75;5053039;28;20478;-81
2023/07/11 02:06:54;;;;;;;15.07;6.70;;;;;;;30.52;50.68;99345.78;5052952;28;20033;-81
2023/07/11 02:09:20;;;;;;;17.83;6.05;;;;;;;30.51;50.71;99338.69;5051754;28;20017;-81
2023/07/11 02:11:46;;;;;;;16.20;6.85;;;;;;;30.51;50.33;99348.63;5052600;28;20113;-81
2023/07/11 02:14:17;;;;;;;14.68;6.05;;;;;;;30.49;50.17;99335.31;5052746;28;20108;-81
2023/07/11 02:16:45;;;;;;;18.35;6.65;;;;;;;30.48;49.89;99328.25;5052722;28;20033;-82
2023/07/11 02:19:15;;;;;;;19.02;6.57;;;;;;;30.45;49.85;99328.53;5052948;28;20044;-81
2023/07/11 02:21:41;;;;;;;15.70;5.78;;;;;;;30.44;49.83;99331.41;5052627;28;20389;-82
2023/07/11 02:24:11;;;;;;;17.50;6.15;;;;;;;30.41;49.37;99321.81;5053144;28;20022;-81
2023/07/11 02:26:37;;;;;;;19.02;6.15;;;;;;;30.42;49.64;99323.50;5052638;28;20108;-82
2023/07/11 02:29:03;;;;;;;17.08;5.90;;;;;;;30.38;49.22;99322.13;5052984;28;20113;-82
2023/07/11 02:31:30;;;;;;;16.88;6.28;;;;;;;30.37;49.72;99315.06;5052690;28;20021;-83
2023/07/11 02:33:56;;;;;;;16.85;6.22;;;;;;;30.36;49.16;99314.19;5052838;28;20046;-82
2023/07/11 02:36:22;;;;;;;13.60;5.25;;;;;;;30.33;49.39;99319.06;5052369;28;20512;-82
2023/07/11 02:38:47;;;;;;;12.85;5.80;;;;;;;30.31;49.47;99315.69;5052421;28;20115;-82
2023/07/11 02:41:13;;;;;;;16.33;5.88;;;;;;;30.31;48.95;99321.06;5052714;28;20056;-82
2023/07/11 02:43:38;;;;;;;17.60;6.47;;;;;;;30.23;49.02;99314.66;5052313;28;20405;-82
2023/07/11 02:46:03;;;;;;;17.30;6.05;;;;;;;30.24;48.95;99310.94;5052274;28;20370;-82
2023/07/11 02:48:29;;;;;;;14.80;6.20;;;;;;;30.22;49.18;99302.16;5052332;28;20021;-82
2023/07/11 02:50:55;;;;;;;12.88;5.68;;;;;;;30.20;49.01;99306.88;5052184;28;20519;-82
2023/07/11 02:53:20;;;;;;;13.77;4.50;;;;;;;30.20;48.97;99309.56;5051232;28;20080;-83
2023/07/11 02:55:46;;;;;;;12.82;5.72;;;;;;;30.19;49.23;99304.34;5052318;28;20053;-82
2023/07/11 02:58:11;;;;;;;13.63;5.30;;;;;;;30.17;49.24;99299.13;5051882;28;20056;-82
2023/07/11 03:00:37;;;;;;;13.48;5.28;;;;;;;30.14;48.86;99294.06;5050306;28;20036;-82
2023/07/11 03:03:03;;;;;;;13.02;5.43;;;;;;;30.13;48.67;99287.00;5052110;28;20104;-82
2023/07/11 03:05:29;;;;;;;23.05;6.03;;;;;;;30.11;48.92;99294.38;5051886;28;20521;-82
2023/07/11 03:07:54;;;;;;;12.50;5.15;;;;;;;30.09;49.25;99291.84;5052192;28;20112;-82
2023/07/11 03:10:20;;;;;;;12.15;5.55;;;;;;;30.08;49.04;99286.59;5050285;28;20489;-82
2023/07/11 03:12:45;;;;;;;15.40;6.13;;;;;;;30.04;48.91;99288.75;5050966;28;20175;-83
2023/07/11 03:15:11;;;;;;;16.88;5.35;;;;;;;30.01;49.02;99295.28;5051955;28;20048;-83
2023/07/11 03:17:36;;;;;;;14.82;6.00;;;;;;;30.01;49.18;99294.44;5051932;28;20385;-82
2023/07/11 03:20:02;;;;;;;16.05;5.45;;;;;;;29.98;49.29;99284.81;5051630;28;20037;-82
2023/07/11 03:22:28;;;;;;;14.05;5.60;;;;;;;29.95;49.38;99290.53;5051854;28;20029;-83
2023/07/11 03:24:54;;;;;;;16.48;6.07;;;;;;;29.94;49.36;99291.53;5051972;28;20029;-82
2023/07/11 03:27:19;;;;;;;18.38;5.45;;;;;;;29.89;49.26;99288.47;5051948;28;20362;-82
2023/07/11 03:29:45;;;;;;;13.18;5.47;;;;;;;29.91;49.21;99282.94;5051981;28;20068;-82
2023/07/11 03:32:11;;;;;;;14.45;5.13;;;;;;;29.88;49.21;99290.31;5052203;28;20017;-81
2023/07/11 03:34:37;;;;;;;13.98;5.75;;;;;;;29.87;49.27;99287.78;5051791;28;20167;-82
2023/07/11 03:37:02;;;;;;;14.35;5.30;;;;;;;29.83;48.96;99278.34;5051628;28;20025;-83
2023/07/11 03:39:28;;;;;;;11.52;5.32;;;;;;;29.83;49.18;99286.41;5050678;28;20024;-83
2023/07/11 03:41:53;;;;;;;14.23;5.30;;;;;;;29.80;48.75;99286.72;5052003;28;20223;-83
2023/07/11 03:44:18;;;;;;;14.70;5.78;;;;;;;29.78;49.07;99288.72;5051744;28;20401;-83
2023/07/11 03:46:44;;;;;;;18.20;5.53;;;;;;;29.79;49.14;99290.41;5051577;28;20040;-82
2023/07/11 03:49:09;;;;;;;14.45;5.63;;;;;;;29.76;48.96;99288.06;5051218;28;20032;-82
2023/07/11 03:51:35;;;;;;;12.48;6.15;;;;;;;29.74;48.68;99280.13;5050528;28;20025;-83
2023/07/11 03:54:01;;;;;;;18.45;5.68;;;;;;;29.74;48.84;99283.66;5051811;28;20021;-83
2023/07/11 03:56:27;;;;;;;13.00;5.47;;;;;;;29.70;48.86;99276.91;5051563;28;20025;-82
2023/07/11 03:58:53;;;;;;;12.65;4.70;;;;;;;29.68;48.75;99273.50;5051679;28;20409;-82
2023/07/11 04:01:19;;;;;;;14.10;4.97;;;;;;;29.63;48.98;99275.81;5049982;28;20028;-81
2023/07/11 04:03:44;;;;;;;13.25;5.40;;;;;;;29.62;49.10;99271.44;5051189;28;20017;-82
2023/07/11 04:06:10;;;;;;;18.10;5.53;;;;;;;29.59;48.82;99274.47;5051466;28;20100;-83
2023/07/11 04:08:35;;;;;;;15.13;6.20;;;;;;;29.57;49.25;99271.06;5051335;28;20074;-82
2023/07/11 04:11:01;;;;;;;13.60;5.35;;;;;;;29.59;48.93;99275.28;5051450;28;20456;-83
2023/07/11 04:13:27;;;;;;;15.93;5.65;;;;;;;29.57;48.91;99260.31;5050299;28;20029;-83
2023/07/11 04:15:52;;;;;;;14.90;5.05;;;;;;;29.56;49.17;99253.25;5051577;28;20032;-83
2023/07/11 04:18:18;;;;;;;13.23;5.43;;;;;;;29.51;49.20;99267.16;5051369;28;20092;-82
2023/07/11 04:20:45;;;;;;;14.63;5.38;;;;;;;29.48;48.81;99262.94;5051372;28;20409;-84
2023/07/11 04:23:12;;;;;;;12.82;5.47;;;;;;;29.48;49.53;99262.94;5054252;28;20036;-82
2023/07/11 04:25:38;;;;;;;14.00;5.13;;;;;;;29.45;49.07;99271.28;5055217;28;20056;-83
2023/07/11 04:28:05;;;;;;;17.05;5.47;;;;;;;29.44;49.06;99263.38;5054936;28;20059;-83
2023/07/11 04:30:31;;;;;;;14.85;5.80;;;;;;;29.43;49.03;99267.06;5053239;28;20032;-83
2023/07/11 04:32:56;;;;;;;17.88;5.32;;;;;;;29.42;49.16;99263.53;5054711;28;20021;-82
2023/07/11 04:35:22;;;;;;;15.32;5.97;;;;;;;29.39;49.10;99265.69;5054126;28;20032;-83
2023/07/11 04:37:47;;;;;;;11.68;5.22;;;;;;;29.37;48.74;99260.47;5055396;28;20089;-85
2023/07/11 04:40:13;;;;;;;16.85;5.28;;;;;;;29.32;48.96;99260.06;5054773;28;20647;-82
2023/07/11 04:42:39;;;;;;;14.13;5.18;;;;;;;29.30;48.69;99252.16;5055195;28;20017;-84
2023/07/11 04:45:06;;;;;;;12.13;5.30;;;;;;;29.26;49.04;99253.50;5054590;28;20032;-83
2023/07/11 04:47:31;;;;;;;13.23;5.13;;;;;;;29.25;49.25;99253.63;5054385;28;20033;-84
2023/07/11 04:49:57;;;;;;;11.75;5.03;;;;;;;29.24;49.20;99251.94;5053614;28;20174;-85
2023/07/11 04:52:24;;;;;;;13.80;5.50;;;;;;;29.18;48.83;99248.88;5055272;28;20013;-85
2023/07/11 04:54:49;;;;;;;13.60;5.38;;;;;;;29.17;49.25;99249.88;5054830;28;20448;-83
2023/07/11 04:57:15;;;;;;;16.08;5.75;;;;;;;29.16;49.51;99242.81;5054390;28;20047;-82
2023/07/11 04:59:40;;;;;;;15.63;5.75;;;;;;;29.13;49.08;99245.78;5054443;28;20045;-84
2023/07/11 05:02:05;;;;;;;13.88;5.45;;;;;;;29.13;49.54;99243.09;5054288;28;20044;-82
2023/07/11 05:04:31;;;;;;;17.95;5.60;;;;;;;29.09;49.37;99247.09;5054513;28;20033;-80
2023/07/11 05:07:00;;;;;;;17.98;6.28;;;;;;;29.06;49.47;99248.25;5053991;28;20021;-81
2023/07/11 05:09:29;;;;;;;14.18;5.47;;;;;;;29.03;49.55;99247.69;5054382;28;20032;-82
2023/07/11 05:11:55;;;;;;;17.77;5.60;;;;;;;29.02;49.55;99241.50;5054278;28;20100;-84
2023/07/11 05:14:20;;;;;;;14.98;5.93;;;;;;;29.00;49.85;99238.09;5033663;28;20453;-83
2023/07/11 05:16:45;;;;;;;16.20;5.72;;;;;;;29.00;49.57;99234.59;5033869;28;20026;-82
2023/07/11 05:19:11;;;;;;;14.82;4.97;;;;;;;28.94;49.87;99223.47;5034201;28;20029;-82
2023/07/11 05:21:37;;;;;;;16.45;5.97;;;;;;;28.92;49.61;99222.75;5041655;28;20024;-83
2023/07/11 05:24:02;;;;;;;15.65;5.68;;;;;;;28.89;49.93;99215.00;5052275;28;20052;-81
2023/07/11 05:26:29;;;;;;;17.15;5.72;;;;;;;28.89;49.70;99215.00;5053904;28;20112;-82
2023/07/11 05:28:55;;;;;;;14.85;5.90;;;;;;;28.87;49.76;99213.47;5054086;28;20021;-82
2023/07/11 05:31:20;;;;;;;18.60;5.57;;;;;;;28.85;49.98;99213.59;5053581;28;20108;-83
2023/07/11 05:33:45;;;;;;;16.73;6.07;;;;;;;28.81;49.79;99212.22;5051790;28;20029;-85
2023/07/11 05:36:32;;;;;;;17.58;5.30;;;;;;;28.76;50.36;99203.78;5053830;28;20036;-84
2023/07/11 05:39:18;;;;;;;14.93;5.55;;;;;;;28.79;50.04;99208.81;5053926;28;20055;-83
2023/07/11 05:41:47;;;;;;;14.82;5.88;;;;;;;28.75;50.25;99208.28;5053390;28;20029;-83
2023/07/11 05:44:14;;;;;;;11.93;5.50;;;;;;;28.74;50.41;99211.09;5052212;28;20029;-83
2023/07/11 05:46:39;;;;;;;16.00;6.20;;;;;;;28.72;50.39;99213.09;5053408;28;20032;-83
2023/07/11 05:49:05;;;;;;;16.52;5.47;;;;;;;28.70;50.50;99212.44;5052706;28;20031;-84
2023/07/11 05:51:31;;;;;;;13.65;5.53;;;;;;;28.71;50.52;99211.44;5052584;28;20028;-82
2023/07/11 05:53:57;;;;;;;10.15;5.20;;;;;;;28.69;50.35;99211.56;5053946;28;20030;-83
2023/07/11 05:56:23;;;;;;;11.40;5.15;;;;;;;28.71;50.38;99209.56;5053969;28;20464;-83
2023/07/11 05:58:50;;;;;;;13.15;5.43;;;;;;;28.72;50.57;99213.09;5053999;28;20128;-83
2023/07/11 06:01:19;;;;;;;16.80;5.47;;;;;;;28.72;50.49;99208.59;5054106;28;20037;-84
2023/07/11 06:03:47;;;;;;;16.73;5.45;;;;;;;28.71;50.55;99216.78;5053450;28;20473;-84
2023/07/11 06:06:14;;;;;;;13.55;5.22;;;;;;;28.73;50.50;99214.78;5053652;28;20115;-83
2023/07/11 06:08:40;;;;;;;12.70;5.57;;;;;;;28.68;51.12;99215.25;5052226;28;20028;-84
2023/07/11 06:11:07;;;;;;;15.77;5.53;;;;;;;28.70;50.95;99210.56;5053533;28;20048;-83
2023/07/11 06:13:35;;;;;;;16.00;6.03;;;;;;;28.70;50.75;99209.75;5053415;28;20021;-83
2023/07/11 06:16:12;;;;;;;15.65;6.03;;;;;;;28.72;50.70;99213.09;5053257;28;20021;-82
2023/07/11 06:18:39;;;;;;;14.30;5.80;;;;;;;28.73;51.13;99218.34;5053340;28;20052;-82
2023/07/11 06:21:07;;;;;;;15.18;6.00;;;;;;;28.76;50.98;99215.34;5052508;28;20423;-82
2023/07/11 06:23:32;;;;;;;13.02;5.25;;;;;;;28.77;51.13;99213.50;5052512;28;20029;-83
2023/07/11 06:25:58;;;;;;;10.95;4.95;;;;;;;28.79;51.29;99207.00;5051641;28;20097;-81
2023/07/11 06:28:24;;;;;;;15.48;6.28;;;;;;;28.78;50.94;99205.31;5052647;28;20487;-81
2023/07/11 06:30:50;;;;;;;13.13;5.80;;;;;;;28.80;51.12;99215.88;5052676;28;20025;-80
2023/07/11 06:33:17;;;;;;;11.73;5.63;;;;;;;28.81;51.00;99217.59;5052370;28;20483;-81
2023/07/11 06:35:48;;;;;;;11.98;6.15;;;;;;;28.79;51.19;99206.13;5052577;28;20021;-81
2023/07/11 06:38:14;;;;;;;12.45;6.28;;;;;;;28.81;51.48;99212.22;5052802;28;20067;-81
2023/07/11 06:40:39;;;;;;;12.30;5.88;;;;;;;28.82;51.32;99203.16;5052572;28;20055;-81
2023/07/11 06:43:05;;;;;;;16.25;6.20;;;;;;;28.84;51.14;99201.16;5051726;28;20028;-79
2023/07/11 06:45:30;;;;;;;17.48;6.38;;;;;;;28.86;51.40;99199.19;5052596;28;20071;-80
2023/07/11 06:47:56;;;;;;;10.80;5.53;;;;;;;28.88;51.50;99202.59;5046690;28;20124;-82
2023/07/11 06:50:21;;;;;;;12.50;5.80;;;;;;;28.87;50.98;99206.28;5051245;28;20016;-82
2023/07/11 06:52:47;;;;;;;11.23;6.47;;;;;;;28.89;51.00;99201.59;5050278;28;20127;-79
2023/07/11 06:55:12;;;;;;;13.77;5.30;;;;;;;28.89;50.90;99204.25;5044549;28;20239;-83
2023/07/11 06:57:38;;;;;;;11.85;6.03;;;;;;;28.88;51.48;99199.91;5051433;28;20078;-83
2023/07/11 07:00:06;;;;;;;35.42;7.68;;;;;;;28.89;51.90;99196.22;5050375;28;20043;-78
2023/07/11 07:02:32;;;;;;;24.73;7.00;;;;;;;28.92;52.15;99201.25;5048440;28;20029;-79
2023/07/11 07:04:57;;;;;;;25.25;7.00;;;;;;;28.92;51.71;99197.75;5045730;28;20024;-81
2023/07/11 07:07:23;;;;;;;18.83;6.28;;;;;;;28.94;51.76;99198.44;5050682;28;20028;-79
2023/07/11 07:09:49;;;;;;;21.48;7.18;;;;;;;28.97;51.65;99197.28;5051585;28;20052;-79
2023/07/11 07:12:16;;;;;;;16.10;6.25;;;;;;;28.98;51.51;99201.66;5051289;28;20047;-82
2023/07/11 07:14:41;;;;;;;17.95;6.53;;;;;;;28.98;51.69;99215.06;5043156;28;20046;-83
2023/07/11 07:17:10;;;;;;;18.88;6.65;;;;;;;29.00;51.61;99210.41;5039832;28;20022;-81
2023/07/11 07:19:35;;;;;;;18.30;6.32;;;;;;;29.00;51.78;99199.69;5048396;28;20033;-82
2023/07/11 07:22:01;;;;;;;17.77;6.00;;;;;;;29.00;52.03;99197.00;5055228;28;20385;-82
2023/07/11 07:24:26;;;;;;;15.98;5.93;;;;;;;29.03;51.46;99207.41;5051335;28;20112;-83
2023/07/11 07:26:52;;;;;;;16.63;6.13;;;;;;;29.02;51.58;99201.22;5048428;28;20052;-82
2023/07/11 07:29:17;;;;;;;17.48;6.07;;;;;;;29.02;51.80;99208.41;5050272;28;20048;-83
2023/07/11 07:31:43;;;;;;;17.08;6.00;;;;;;;29.03;51.71;99202.03;5051043;28;20433;-83
2023/07/11 07:34:08;;;;;;;15.57;6.53;;;;;;;29.04;51.41;99209.09;5046454;28;20086;-82
2023/07/11 07:36:34;;;;;;;18.63;6.38;;;;;;;29.04;51.61;99209.09;5031041;28;20026;-82
2023/07/11 07:38:59;;;;;;;15.75;6.20;;;;;;;29.07;51.40;99208.81;5041881;28;20493;-81
2023/07/11 07:41:25;;;;;;;19.48;6.63;;;;;;;29.08;51.67;99207.81;5047919;28;20055;-83
2023/07/11 07:43:51;;;;;;;20.50;6.93;;;;;;;29.09;51.74;99198.75;5044988;28;20021;-81
2023/07/11 07:46:18;;;;;;;17.85;7.00;;;;;;;29.12;51.84;99201.13;5044747;28;20035;-82
2023/07/11 07:48:44;;;;;;;18.67;6.63;;;;;;;29.12;51.81;99202.97;5039774;28;20445;-81
2023/07/11 07:51:13;;;;;;;21.52;6.93;;;;;;;29.11;51.78;99196.75;5048023;28;20025;-81
2023/07/11 07:53:39;;;;;;;18.05;6.68;;;;;;;29.12;51.69;99202.97;5051350;28;20032;-82
2023/07/11 07:56:17;;;;;;;20.88;6.53;;;;;;;29.13;51.70;99202.81;5050766;28;20025;-82
2023/07/11 07:58:43;;;;;;;17.63;6.68;;;;;;;29.14;52.25;99204.50;5054079;28;20037;-82
2023/07/11 08:01:08;;;;;;;20.45;6.18;;;;;;;29.14;52.19;99190.25;5054983;28;20032;-82
2023/07/11 08:03:36;;;;;;;13.73;5.90;;;;;;;29.14;52.26;99188.38;5054881;28;20029;-82
2023/07/11 08:06:02;;;;;;;23.50;7.15;;;;;;;29.14;52.34;99201.00;5054966;28;20029;-83
2023/07/11 08:08:27;;;;;;;17.92;6.95;;;;;;;29.16;52.62;99189.09;5055072;28;20075;-82
2023/07/11 08:10:53;;;;;;;15.77;6.50;;;;;;;29.17;52.67;99188.09;5044367;28;20030;-82
2023/07/11 08:13:18;;;;;;;14.65;7.13;;;;;;;29.20;52.30;99185.06;5051269;28;20141;-83
2023/07/11 08:15:44;;;;;;;14.75;6.65;;;;;;;29.21;52.42;99181.38;5046922;28;20037;-82
2023/07/11 08:18:10;;;;;;;18.38;6.82;;;;;;;29.24;52.44;99190.16;5043894;28;20026;-82
2023/07/11 08:20:36;;;;;;;17.00;7.28;;;;;;;29.25;52.61;99191.84;5053370;28;20031;-82
2023/07/11 08:23:02;;;;;;;17.55;6.93;;;;;;;29.28;52.10;99175.38;5053941;28;20187;-82
2023/07/11 08:25:28;;;;;;;15.75;7.15;;;;;;;29.30;52.35;99178.78;5054344;28;20029;-82
2023/07/11 08:27:53;;;;;;;14.40;7.20;;;;;;;29.33;52.56;99186.53;5053965;28;20021;-81
2023/07/11 08:30:19;;;;;;;16.33;7.25;;;;;;;29.34;52.52;99180.13;5052943;28;20033;-82
2023/07/11 08:32:44;;;;;;;21.30;7.07;;;;;;;29.35;52.97;99181.84;5054439;28;20423;-82
2023/07/11 08:35:10;;;;;;;21.73;7.20;;;;;;;29.39;52.50;99182.38;5054023;28;20053;-82
2023/07/11 08:37:35;;;;;;;17.33;6.65;;;;;;;29.39;52.42;99188.59;5054544;28;20024;-82
2023/07/11 08:40:02;;;;;;;19.73;8.05;;;;;;;29.38;52.52;99184.22;5054265;28;20035;-82
2023/07/11 08:42:41;;;;;;;14.70;7.07;;;;;;;29.41;52.46;99173.16;5054397;28;20029;-82
2023/07/11 08:45:26;;;;;;;23.58;7.85;;;;;;;29.44;53.04;99175.53;5054342;28;20040;-81
2023/07/11 08:48:00;;;;;;;23.58;7.75;;;;;;;29.46;52.96;99162.78;5054032;28;20039;-82
2023/07/11 08:50:32;;;;;;;18.40;7.50;;;;;;;29.47;52.59;99159.09;5050943;28;20369;-82
2023/07/11 08:53:11;;;;;;;26.23;8.07;;;;;;;29.51;52.69;99172.25;5034298;28;20057;-81
2023/07/11 08:55:46;;;;;;;20.40;7.18;;;;;;;29.52;52.70;99176.59;5034088;28;20385;-82
2023/07/11 08:58:18;;;;;;;23.60;7.82;;;;;;;29.53;52.76;99170.25;5047927;28;20454;-82
2023/07/11 09:00:46;;;;;;;18.15;6.80;;;;;;;29.56;52.28;99161.84;5051024;28;20041;-81
2023/07/11 09:03:24;;;;;;;17.85;7.10;;;;;;;29.56;52.60;99149.28;5046181;28;20420;-80
2023/07/11 09:06:14;;;;;;;26.83;8.25;;;;;;;29.59;52.68;99145.44;5044453;28;20025;-81
2023/07/11 09:08:42;;;;;;;22.95;6.95;;;;;;;29.61;52.64;99156.84;5052528;28;20033;-81
2023/07/11 09:11:15;;;;;;;20.55;6.78;;;;;;;29.64;52.47;99164.63;5048384;28;20112;-82
2023/07/11 09:13:51;;;;;;;21.65;7.30;;;;;;;29.65;52.63;99154.69;5043772;28;20017;-81
2023/07/11 09:16:33;;;;;;;;;;;;;;;29.66;52.52;99157.22;5046710;28;20581;-82
2023/07/11 09:19:11;;;;;;;23.50;7.35;;;;;;;29.68;52.69;99143.63;5051883;28;19917;-81
2023/07/11 09:22:09;;;;;;;24.65;7.40;;;;;;;29.72;52.69;99144.97;5046343;28;20029;-82
2023/07/11 09:24:41;;;;;;;25.33;8.02;;;;;;;29.73;52.57;99142.16;5031294;28;20517;-82
2023/07/11 09:27:25;;;;;;;19.02;6.82;;;;;;;29.76;52.63;99142.84;5031379;28;20104;-81
2023/07/11 09:29:52;;;;;;;21.70;7.53;;;;;;;29.78;52.98;99144.34;5031501;28;20037;-82
2023/07/11 09:32:18;;;;;;;21.90;7.20;;;;;;;29.81;52.92;99148.56;5024878;28;20530;-81
2023/07/11 09:34:53;;;;;;;21.10;7.03;;;;;;;29.83;52.77;99141.19;5011131;28;20092;-82
2023/07/11 09:37:24;;;;;;;19.40;7.20;;;;;;;29.86;52.98;99143.56;5023811;28;20686;-81
2023/07/11 09:39:59;;;;;;;21.67;7.38;;;;;;;29.88;52.75;99144.25;5022994;28;20075;-83
2023/07/11 09:42:52;;;;;;;25.02;7.50;;;;;;;29.90;52.80;99150.31;5008199;28;20120;-82
2023/07/11 09:45:20;;;;;;;22.25;7.55;;;;;;;29.92;53.31;99150.97;5027263;28;20036;-81
2023/07/11 09:47:58;;;;;;;27.33;9.10;;;;;;;29.97;53.39;99140.59;5027761;28;20103;-81
2023/07/11 09:50:49;;;;;;;20.00;8.13;;;;;;;29.98;53.14;99155.72;5030762;28;20040;-82
2023/07/11 09:53:21;;;;;;;18.27;6.20;;;;;;;29.99;52.72;99151.19;5030534;28;20113;-82
2023/07/11 09:55:53;;;;;;;21.25;7.75;;;;;;;30.00;52.98;99152.88;5030089;28;20028;-80
2023/07/11 09:58:18;;;;;;;19.52;7.30;;;;;;;29.99;52.92;99143.97;5013000;28;20034;-82
2023/07/11 10:00:50;;;;;;;22.35;8.00;;;;;;;30.01;52.90;99136.56;5047148;28;20509;-82
2023/07/11 10:03:20;;;;;;;20.50;7.75;;;;;;;30.01;53.06;99144.66;5048732;28;20059;-82
2023/07/11 10:05:49;;;;;;;22.23;7.72;;;;;;;30.02;52.96;99146.34;5050754;28;20508;-82
2023/07/11 10:08:26;;;;;;;21.42;8.50;;;;;;;30.01;53.33;99139.28;5048434;28;20040;-80
2023/07/11 10:10:53;;;;;;;22.98;8.52;;;;;;;30.04;53.19;99146.19;5052253;28;20021;-81
2023/07/11 10:13:20;;;;;;;21.60;8.75;;;;;;;30.01;53.36;99133.03;5052212;28;20094;-80
2023/07/11 10:15:52;;;;;;;24.02;9.13;;;;;;;30.05;53.77;99136.25;5051882;28;20017;-81
2023/07/11 10:18:20;;;;;;;27.13;9.45;;;;;;;30.07;53.96;99142.31;5050055;28;20524;-81
2023/07/11 10:20:51;;;;;;;27.73;9.25;;;;;;;30.07;53.59;99148.53;5050264;28;20025;-82
2023/07/11 10:23:24;;;;;;;22.00;8.52;;;;;;;30.08;53.69;99160.16;5049768;28;20100;-81
2023/07/11 10:26:13;;;;;;;21.00;7.88;;;;;;;30.09;53.41;99156.47;5050640;28;20393;-80
2023/07/11 10:28:43;;;;;;;26.45;8.55;;;;;;;30.08;54.25;99160.16;5046790;28;20037;-80
2023/07/11 10:31:17;;;;;;;20.73;9.48;;;;;;;30.10;54.15;99142.00;5051915;28;20031;-81
2023/07/11 10:33:49;;;;;;;16.80;8.30;;;;;;;30.12;55.06;99146.22;5052206;28;20362;-81
2023/07/11 10:36:46;;;;;;;20.73;8.95;;;;;;;30.14;54.52;99143.38;5051803;28;20029;-81
2023/07/11 10:39:28;;;;;;;21.98;9.40;;;;;;;30.17;54.23;99147.59;5048629;28;20033;-80
2023/07/11 10:41:57;;;;;;;24.30;8.57;;;;;;;30.17;53.94;99151.16;5050135;28;20110;-80
2023/07/11 10:44:28;;;;;;;20.55;9.48;;;;;;;30.19;54.02;99134.81;5052501;28;20504;-82
2023/07/11 10:46:56;;;;;;;23.60;9.63;;;;;;;30.20;54.45;99137.34;5052082;28;20090;-82
2023/07/11 10:49:40;;;;;;;21.33;8.82;;;;;;;30.21;54.18;99135.53;5049783;28;20029;-81
2023/07/11 10:52:19;;;;;;;20.95;8.65;;;;;;;30.24;54.35;99144.09;5050890;28;20075;-81
2023/07/11 10:54:52;;;;;;;26.55;9.70;;;;;;;30.26;53.97;99142.09;5050759;28;20444;-82
2023/07/11 10:57:38;;;;;;;16.50;8.43;;;;;;;30.27;53.71;99143.75;5050630;28;20029;-80
2023/07/11 11:00:14;;;;;;;23.85;8.43;;;;;;;30.25;53.80;99132.31;5051599;28;20052;-81
2023/07/11 11:03:19;;;;;;;24.13;9.55;;;;;;;30.27;54.17;99121.41;5050699;28;20484;-81
2023/07/11 11:06:06;;;;;;;22.77;9.30;;;;;;;30.30;54.23;99141.78;5051606;28;20025;-81
2023/07/11 11:08:44;;;;;;;18.80;8.95;;;;;;;30.28;53.60;99126.59;5051005;28;20037;-81
2023/07/11 11:11:39;;;;;;;23.42;8.82;;;;;;;30.27;54.49;99118.72;5050485;28;20043;-80
2023/07/11 11:14:12;;;;;;;25.55;9.32;;;;;;;30.30;53.80;99117.56;5051917;28;20029;-82
2023/07/11 11:16:47;;;;;;;20.40;8.63;;;;;;;30.32;54.36;99112.84;5051869;28;20029;-82
2023/07/11 11:19:34;;;;;;;25.55;9.40;;;;;;;30.35;54.50;99131.38;5051062;28;20037;-81
2023/07/11 11:22:29;;;;;;;25.10;9.38;;;;;;;30.32;53.85;99129.00;5044994;28;20033;-82
2023/07/11 11:25:00;;;;;;;22.98;9.43;;;;;;;30.33;53.68;99130.66;5049679;28;20504;-81
2023/07/11 11:27:55;;;;;;;20.50;8.77;;;;;;;30.35;54.09;99121.44;5047455;28;20144;-82
2023/07/11 11:30:45;;;;;;;26.98;11.10;;;;;;;30.38;54.24;99114.88;5049264;28;20112;-82
2023/07/11 11:33:32;;;;;;;20.83;8.60;;;;;;;30.40;54.05;99107.47;5049142;28;20033;-82